• Join FlightAware (Why Join?)
  • Login
  • US Flag 
10:20AM EDT


 

Airport Tracker/Info


-or-


 

Live Flight TrackerFlight Track Log ✈ AWE1693 ✈ 03-Jul-2014 ✈ KORD - KMCO

Flight Track Log - Related Links

Times and Time Zones

All times are in EDT time to prevent confusion due to time zone crossing. See the AWE1693 flight status page for this flight to view local times or setup timezone preferences in your user account.

Time Position Orientation Groundspeed Altitude Reporting Facility
EDT Latitude Longitude Course Direction KTS MPH feet Rate Location/Type
12:43PM 41.9333 -87.9167 180° South 188 216 1,700  Level Chicago TRACON
12:44PM 41.8833 -87.9167 180° South 220 253 3,900 1,920 Climbing Chicago TRACON
12:45PM 41.8006 -87.9069 175° South 261 300 6,100 2,280 Climbing Chicago Center
12:46PM 41.7136 -87.9011 177° South 287 330 9,000 2,640 Climbing Chicago Center
12:47PM 41.6225 -87.8925 176° South 307 353 11,600 2,340 Climbing Chicago Center
12:48PM 41.5358 -87.8850 176° South 314 361 13,900 2,220 Climbing Chicago Center
12:49PM 41.4378 -87.8789 177° South 325 374 16,300 1,980 Climbing Chicago Center
12:50PM 41.3439 -87.8833 182° South 334 384 18,100 1,380 Climbing Chicago Center
12:52PM 41.1519 -87.8906 180° South 364 419 20,600 1,080 Climbing Chicago Center
12:53PM 41.0419 -87.8872 179° South 390 449 21,600 1,320 Climbing Chicago Center
12:55PM 40.7919 -87.8781 178° South 431 496 24,600 1,260 Climbing Indianapolis Center
12:57PM 40.5439 -87.8711 180° South 446 513 26,800 1,140 Climbing Indianapolis Center
12:58PM 40.4128 -87.8664 178° South 465 535 28,200 1,020 Climbing Indianapolis Center
12:59PM 40.2858 -87.8614 178° South 464 534 29,000 360 Climbing Indianapolis Center
01:00PM 40.1531 -87.8581 179° South 471 542 29,000  Level Indianapolis Center
01:01PM 39.9978 -87.8494 178° South 471 542 29,000  Level Indianapolis Center
01:02PM 39.8639 -87.8433 178° South 476 548 29,000  Level Indianapolis Center
01:03PM 39.7322 -87.8125 170° South 479 551 29,000  Level Indianapolis Center
01:06PM 39.4458 -87.7186 166° South 487 560 29,000  Level Chicago Center
01:06PM 39.3261 -87.6767 165° South 487 560 29,000  Level Indianapolis Center
01:08PM 39.1956 -87.6339 166° South 486 559 29,000  Level Indianapolis Center
01:09PM 39.0633 -87.5928 166° South 486 559 29,000 600 Level Indianapolis Center
01:11PM 38.7792 -87.5003 166° South 479 551 30,900 840 Climbing Indianapolis Center
01:13PM 38.5267 -87.4192 166° South 470 541 32,700 660 Climbing Indianapolis Center
01:14PM 38.4017 -87.3797 166° South 470 541 33,000 60 Climbing Indianapolis Center
01:16PM 38.1347 -87.2964 166° South 465 535 33,000  Level Memphis Center
01:17PM 38.0064 -87.2550 166° South 464 534 33,000  Level Indianapolis Center
01:18PM 37.8828 -87.2161 166° South 462 532 33,000  Level Indianapolis Center
01:20PM 37.6322 -87.1381 166° South 462 532 33,000  Level Indianapolis Center
01:22PM 37.3581 -87.0531 166° South 462 532 33,000  Level Memphis Center
01:23PM 37.2333 -87.0133 166° South 462 532 33,000  Level Memphis Center
01:24PM 37.1083 -86.9756 166° South 461 531 33,000  Level Memphis Center
01:25PM 36.9828 -86.9375 166° South 460 529 33,000  Level Memphis Center
01:27PM 36.7478 -86.8025 155° Southeast 466 536 33,000  Level Indianapolis Center
01:29PM 36.5206 -86.6208 145° Southeast 474 545 33,000  Level Memphis Center
01:30PM 36.4056 -86.5311 148° Southeast 475 547 33,000  Level Memphis Center
01:31PM 36.2733 -86.4275 148° Southeast 475 547 33,000  Level Memphis Center
01:32PM 36.1611 -86.3411 148° Southeast 473 544 33,000  Level Memphis Center
01:33PM 36.0486 -86.2536 148° Southeast 472 543 33,000  Level Memphis Center
01:34PM 35.9386 -86.1686 148° Southeast 468 539 33,000  Level Memphis Center
01:36PM 35.7339 -86.0086 148° Southeast 455 524 33,000  Level Atlanta Center
01:37PM 35.6503 -85.9461 149° Southeast 469 540 33,000  Level Indianapolis Center
01:39PM 35.4756 -85.8114 148° Southeast 469 540 33,000  Level Memphis Center
01:41PM 35.2567 -85.6444 148° Southeast 468 539 33,000  Level Memphis Center
01:42PM 35.1478 -85.5611 148° Southeast 466 536 33,000  Level Memphis Center
01:43PM 34.9611 -85.4428 153° Southeast 460 529 33,000  Level Atlanta Center
01:44PM 34.9211 -85.4186 154° Southeast 461 531 33,000  Level Memphis Center
01:45PM 34.7269 -85.3125 156° South 460 529 33,000  Level Atlanta Center
01:46PM 34.6106 -85.2553 158° South 460 529 33,000  Level Atlanta Center
01:50PM 34.1453 -85.0053 151° Southeast 455 524 33,000  Level Atlanta Center
01:51PM 34.0289 -84.9461 157° South 455 524 33,000  Level Atlanta Center
01:53PM 33.7958 -84.8186 150° Southeast 460 529 33,000  Level Atlanta Center
01:55PM 33.5733 -84.7044 157° South 460 529 33,000  Level Atlanta Center
01:56PM 33.7818 -84.5431 151° Southeast  Level FlightAware Approximate
01:56PM 33.4567 -84.6414 156° South 460 529 33,000  Level Atlanta Center
01:57PM 33.3400 -84.5833 157° South 454 522 33,000  Level Atlanta Center
01:58PM 33.2236 -84.5206 156° South 454 522 33,000  Level Atlanta Center
01:59PM 33.1069 -84.4578 156° South 454 522 33,000  Level Atlanta Center
02:00PM 32.9900 -84.4006 158° South 454 522 33,000  Level Atlanta Center
02:01PM 32.8756 -84.3381 155° Southeast 454 522 33,000  Level Atlanta Center
02:03PM 32.7416 -84.2483 151° Southeast  Level FlightAware Approximate
02:03PM 32.6336 -84.2089 151° Southeast 454 522 33,000  Level Atlanta Center
02:04PM 32.5250 -84.1375 151° Southeast 449 517 33,000  Level Atlanta Center
02:05PM 32.4167 -84.0611 149° Southeast 449 517 33,000  Level Atlanta Center
02:06PM 32.3081 -83.9847 149° Southeast 459 528 33,000  Level Atlanta Center
02:07PM 32.1975 -83.9111 151° Southeast 459 528 33,000  Level Atlanta Center
02:08PM 32.0844 -83.8353 150° Southeast 459 528 33,000  Level Atlanta Center
02:09PM 32.0006 -83.7769 149° Southeast 459 528 33,000  Level Jacksonville Center
02:10PM 31.9008 -83.7075 149° Southeast 454 522 33,000  Level Jacksonville Center
02:12PM 31.6719 -83.5614 151° Southeast 462 532 33,000  Level Jacksonville Center
02:13PM 31.5511 -83.5117 161° South 467 537 33,000  Level Jacksonville Center
02:14PM 31.4303 -83.4672 163° South 462 532 33,000  Level Jacksonville Center
02:15PM 31.3094 -83.4228 163° South 462 532 33,000 -360 Level Jacksonville Center
02:16PM 31.1906 -83.3733 160° South 462 532 32,300 -1,080 Descending Jacksonville Center
02:18PM 30.9361 -83.2825 163° South 457 526 29,900 -1,260 Descending Jacksonville Center
02:20PM 30.6964 -83.1969 151° Southeast 452 520 27,400 -1,260 Descending Jacksonville Center
02:21PM 30.5775 -83.1458 160° South 452 520 26,200 -1,200 Descending Jacksonville Center
02:23PM 30.3500 -83.0275 151° Southeast 452 520 23,900 -1,200 Descending Jacksonville Center
02:24PM 30.2394 -82.9744 157° South 447 514 22,700 -960 Descending Jacksonville Center
02:25PM 30.1369 -82.9239 157° South 426 490 22,000 -900 Descending Jacksonville Center
02:26PM 30.0431 -82.8758 156° South 402 463 21,000 -1,260 Descending Jacksonville Center
02:27PM 29.9450 -82.8303 158° South 382 440 19,500 -1,020 Descending Jacksonville Center
02:28PM 29.8531 -82.7800 155° Southeast 369 425 19,000 -300 Descending Jacksonville Center
02:29PM 29.7736 -82.7108 143° Southeast 364 419 19,000 -60 Level Jacksonville Center
02:30PM 29.6922 -82.6486 146° Southeast 364 419 18,900 -60 Descending Jacksonville Center
02:31PM 29.6022 -82.5869 149° Southeast 364 419 18,900  Level Jacksonville Center
02:32PM 29.4997 -82.5131 148° Southeast 364 419 19,000 -420 Climbing Jacksonville Center
02:33PM 29.4119 -82.4564 151° Southeast 364 419 18,100 -1,200 Descending Jacksonville Center
02:37PM 29.0875 -82.2486 114° Southeast 340 391 13,300 -1,200 Descending Jacksonville Center
02:38PM 29.0058 -82.2017 153° Southeast 340 391 12,200 -840 Descending Jacksonville Center
02:40PM 28.8736 -82.0675 126° Southeast 324 373 10,800 -480 Descending Jacksonville Center
02:41PM 28.8519 -81.9753 105° East 296 341 10,900  Climbing Jacksonville Center
02:42PM 28.7292 -81.6585 120° Southeast  Level FlightAware Approximate
02:42PM 28.8283 -81.8783 106° East 291 335 10,900  Level Jacksonville Center
02:43PM 28.6652 -81.5463 114° Southeast  Level FlightAware Approximate
02:44PM 28.8000 -81.7500 104° East 297 342 9,000  Level Orlando TRACON
02:45PM 28.7833 -81.6500 101° East 292 336 7,700 -1,200 Descending Orlando TRACON
02:46PM 28.7667 -81.5667 103° East 286 329 6,700 -900 Descending Orlando TRACON
02:47PM 28.7500 -81.4833 103° East 281 323 6,000 -1,080 Descending Orlando TRACON
02:48PM 28.7167 -81.3833 111° Southeast 281 323 4,500 -1,320 Descending Orlando TRACON
02:48PM 28.7000 -81.3636 134° Southeast 274 315 3,900 -720 Descending Jacksonville Center
02:51PM 28.5500 -81.3333 180° South 175 201 2,500 -720 Descending Orlando TRACON
02:52PM 28.5167 -81.3333 180° South 145 167 1,500 -960 Descending Orlando TRACON
02:53PM 28.4667 -81.3333 180° South 136 157 500 -840 Descending Orlando TRACON
02:55PM 28.4294 -81.3090 180° South  Level Estimated
03:02PM 28.4294 -81.3090 24° Northeast  Level Estimated
03:03PM 28.4294 -81.3090 24° Northeast  Level Estimated
03:04PM 28.4294 -81.3090 24° Northeast  Level Estimated
03:05PM 28.4294 -81.3090 24° Northeast  Level Estimated